Time;durP1;ratioP1;P1;durP2;ratioP2;P2;SDS_P1;SDS_P2;PMS_P1;PMS_P2;Temp;Humidity;BMP_temperature;BMP_pressure;BME280_temperature;BME280_humidity;BME280_pressure;Samples;Min_cycle;Max_cycle;Signal;HPM_P1;HPM_P2
2021/10/15 00:00:29;;;;;;;18.70;10.27;;;;;;;4.93;100.00;98591.69;5026324;28;20647;-79
2021/10/15 00:02:55;;;;;;;23.27;10.80;;;;;;;4.91;100.00;98577.56;5023499;28;20021;-79
2021/10/15 00:05:21;;;;;;;17.65;10.05;;;;;;;4.93;100.00;98580.84;5029665;28;20490;-80
2021/10/15 00:07:46;;;;;;;21.55;10.15;;;;;;;4.95;100.00;98584.13;5031125;28;20056;-79
2021/10/15 00:10:11;;;;;;;18.77;10.05;;;;;;;4.96;100.00;98580.34;5030622;28;20061;-81
2021/10/15 00:12:38;;;;;;;18.13;9.85;;;;;;;4.95;100.00;98580.59;5027972;28;20444;-80
2021/10/15 00:15:05;;;;;;;16.60;9.00;;;;;;;4.93;100.00;98572.69;5023632;28;20372;-80
2021/10/15 00:17:30;;;;;;;16.65;9.73;;;;;;;4.96;100.00;98568.69;5025567;28;20018;-79
2021/10/15 00:19:57;;;;;;;22.58;9.30;;;;;;;4.93;100.00;98570.00;5018591;28;20034;-81
2021/10/15 00:22:22;;;;;;;20.13;10.73;;;;;;;4.83;100.00;98572.50;5020406;28;20049;-81
2021/10/15 00:24:47;;;;;;;18.70;10.77;;;;;;;4.72;100.00;98582.34;5027964;28;20018;-81
2021/10/15 00:27:13;;;;;;;16.02;9.07;;;;;;;4.61;100.00;98585.09;5034639;28;20030;-80
2021/10/15 00:29:38;;;;;;;20.02;10.70;;;;;;;4.54;100.00;98582.53;5034389;28;20060;-80
2021/10/15 00:32:07;;;;;;;15.25;9.02;;;;;;;4.52;100.00;98581.13;5034229;28;20466;-80
2021/10/15 00:34:32;;;;;;;18.23;9.10;;;;;;;4.49;100.00;98585.16;5029163;28;20049;-80
2021/10/15 00:36:57;;;;;;;17.73;9.43;;;;;;;4.60;100.00;98586.19;5028065;28;20041;-78
2021/10/15 00:39:23;;;;;;;15.77;8.73;;;;;;;4.59;100.00;98579.09;5031700;28;20086;-79
2021/10/15 00:41:48;;;;;;;13.95;8.85;;;;;;;4.49;100.00;98568.06;5029215;28;20018;-79
2021/10/15 00:44:14;;;;;;;15.43;9.48;;;;;;;4.38;100.00;98566.25;5036634;28;20033;-80
2021/10/15 00:46:41;;;;;;;20.48;9.55;;;;;;;4.21;100.00;98560.75;5036877;28;20025;-80
2021/10/15 00:49:12;;;;;;;20.98;9.45;;;;;;;4.22;100.00;98563.22;5021528;28;20057;-80
2021/10/15 00:51:41;;;;;;;12.55;8.07;;;;;;;4.23;100.00;98559.44;5018000;28;20037;-77
2021/10/15 00:54:07;;;;;;;16.60;8.77;;;;;;;4.19;100.00;98557.47;5033202;28;20391;-79
2021/10/15 00:56:32;;;;;;;14.85;8.10;;;;;;;4.11;100.00;98550.53;5010949;28;20026;-79
2021/10/15 00:59:00;;;;;;;17.42;8.88;;;;;;;4.15;100.00;98554.41;5038115;28;20029;-80
2021/10/15 01:01:26;;;;;;;13.65;7.68;;;;;;;4.12;100.00;98554.06;5041142;28;20018;-80
2021/10/15 01:03:52;;;;;;;15.48;7.93;;;;;;;4.11;100.00;98549.69;5007360;28;20038;-80
2021/10/15 01:06:17;;;;;;;13.70;7.63;;;;;;;4.06;100.00;98555.03;5008832;28;20094;-79
2021/10/15 01:08:48;;;;;;;14.82;7.75;;;;;;;4.09;100.00;98558.06;5006859;28;20062;-80
2021/10/15 01:11:15;;;;;;;16.27;8.07;;;;;;;4.01;100.00;98544.91;5030720;28;20026;-79
2021/10/15 01:13:41;;;;;;;14.77;7.82;;;;;;;3.99;100.00;98543.50;4997387;28;20518;-79
2021/10/15 01:16:09;;;;;;;15.40;8.07;;;;;;;3.98;100.00;98542.66;4996075;28;20038;-79
2021/10/15 01:18:36;;;;;;;14.55;8.40;;;;;;;4.00;100.00;98542.44;4998978;28;20054;-80
2021/10/15 01:21:10;;;;;;;17.45;7.88;;;;;;;4.00;100.00;98532.44;5031445;28;20036;-80
2021/10/15 01:23:38;;;;;;;19.67;8.77;;;;;;;3.93;100.00;98541.75;4998083;28;20026;-79
2021/10/15 01:26:04;;;;;;;18.02;8.45;;;;;;;3.90;100.00;98534.94;4998017;28;20053;-79
2021/10/15 01:28:31;;;;;;;15.50;7.93;;;;;;;3.78;100.00;98534.97;4997616;28;20031;-79
2021/10/15 01:30:57;;;;;;;14.93;7.97;;;;;;;3.87;100.00;98532.69;4996766;28;20086;-79
2021/10/15 01:33:23;;;;;;;12.75;7.72;;;;;;;3.90;100.00;98529.53;5005720;28;20032;-79
2021/10/15 01:35:49;;;;;;;12.77;7.47;;;;;;;3.88;100.00;98536.22;5003852;28;20033;-78
2021/10/15 01:38:15;;;;;;;15.68;7.90;;;;;;;3.84;100.00;98527.78;4995081;28;20038;-79
2021/10/15 01:40:42;;;;;;;14.98;8.85;;;;;;;3.82;100.00;98524.50;4994198;28;20034;-79
2021/10/15 01:43:07;;;;;;;20.33;8.30;;;;;;;3.85;100.00;98524.00;4994424;28;20030;-78
2021/10/15 01:45:33;;;;;;;14.30;8.88;;;;;;;3.81;100.00;98517.41;4995153;28;20030;-79
2021/10/15 01:48:00;;;;;;;14.98;9.25;;;;;;;3.85;100.00;98507.78;4995764;28;20066;-78
2021/10/15 01:50:27;;;;;;;18.55;8.65;;;;;;;3.88;100.00;98510.00;4995494;28;20479;-75
2021/10/15 01:52:53;;;;;;;14.55;8.98;;;;;;;3.89;100.00;98508.09;4995431;28;20804;-78
2021/10/15 01:55:19;;;;;;;14.45;8.43;;;;;;;3.93;100.00;98510.09;4995601;28;20034;-78
2021/10/15 01:57:46;;;;;;;14.02;7.68;;;;;;;3.93;100.00;98504.69;4994489;28;20123;-77
2021/10/15 02:00:13;;;;;;;17.77;8.05;;;;;;;3.78;100.00;98507.06;4993077;28;20026;-78
2021/10/15 02:02:39;;;;;;;16.15;8.52;;;;;;;3.82;100.00;98504.72;4995423;28;20080;-79
2021/10/15 02:05:07;;;;;;;14.73;8.07;;;;;;;3.74;100.00;98506.72;5034352;28;20525;-78
2021/10/15 02:07:32;;;;;;;16.58;10.48;;;;;;;3.74;100.00;98500.50;5004527;28;20029;-79
2021/10/15 02:09:58;;;;;;;17.52;9.32;;;;;;;3.78;100.00;98488.13;5012072;28;20030;-79
2021/10/15 02:12:23;;;;;;;17.27;9.50;;;;;;;3.77;100.00;98494.59;5013517;28;20029;-79
2021/10/15 02:14:49;;;;;;;14.38;8.60;;;;;;;3.84;100.00;98495.31;5015060;28;20037;-79
2021/10/15 02:17:14;;;;;;;13.88;8.73;;;;;;;3.83;100.00;98496.34;5015234;28;20113;-79
2021/10/15 02:19:40;;;;;;;14.45;8.30;;;;;;;3.84;100.00;98499.88;5014711;28;20386;-78
2021/10/15 02:22:05;;;;;;;13.35;7.72;;;;;;;3.75;100.00;98508.38;5013964;28;20026;-79
2021/10/15 02:24:31;;;;;;;17.65;9.02;;;;;;;3.79;100.00;98496.00;5013878;28;20474;-77
2021/10/15 02:26:56;;;;;;;14.40;8.68;;;;;;;3.85;100.00;98496.94;5018317;28;20095;-79
2021/10/15 02:29:22;;;;;;;14.75;8.65;;;;;;;3.79;100.00;98495.19;5016442;28;20029;-77
2021/10/15 02:31:47;;;;;;;16.55;9.18;;;;;;;3.72;100.00;98499.91;5016672;28;20554;-78
2021/10/15 02:34:14;;;;;;;18.13;9.80;;;;;;;3.68;100.00;98494.16;5014729;28;20475;-79
2021/10/15 02:36:40;;;;;;;19.83;9.48;;;;;;;3.61;100.00;98490.75;5014614;28;20029;-77
2021/10/15 02:39:05;;;;;;;15.45;8.75;;;;;;;3.70;100.00;98494.72;5013602;28;20033;-77
2021/10/15 02:41:31;;;;;;;20.42;9.32;;;;;;;3.72;100.00;98489.09;5013356;28;20010;-80
2021/10/15 02:43:56;;;;;;;16.77;8.95;;;;;;;3.79;100.00;98498.72;5007061;28;20040;-78
2021/10/15 02:46:22;;;;;;;13.13;8.43;;;;;;;3.72;100.00;98497.22;5002788;28;20040;-78
2021/10/15 02:48:47;;;;;;;13.18;8.82;;;;;;;3.67;100.00;98499.78;5002753;28;20406;-78
2021/10/15 02:51:13;;;;;;;17.27;8.60;;;;;;;3.70;100.00;98499.31;5016195;28;20097;-80
2021/10/15 02:53:38;;;;;;;17.92;8.35;;;;;;;3.70;100.00;98499.31;5015377;28;20022;-79
2021/10/15 02:56:05;;;;;;;18.52;9.23;;;;;;;3.67;100.00;98488.97;5015920;28;20391;-78
2021/10/15 02:58:30;;;;;;;14.40;7.90;;;;;;;3.64;100.00;98492.97;5025041;28;20041;-79
2021/10/15 03:00:57;;;;;;;15.98;8.98;;;;;;;3.64;100.00;98494.84;5027558;28;20029;-79
2021/10/15 03:03:22;;;;;;;13.95;8.82;;;;;;;3.59;100.00;98486.63;5016832;28;20132;-80
2021/10/15 03:05:48;;;;;;;17.70;8.57;;;;;;;3.56;100.00;98498.75;5014934;28;20061;-79
2021/10/15 03:08:13;;;;;;;14.98;7.80;;;;;;;3.57;100.00;98486.88;5013697;28;20030;-78
2021/10/15 03:10:39;;;;;;;15.70;8.00;;;;;;;3.69;100.00;98503.09;5013220;28;20037;-78
2021/10/15 03:13:05;;;;;;;14.02;7.90;;;;;;;3.57;100.00;98494.19;5012582;28;20018;-78
2021/10/15 03:15:30;;;;;;;19.85;8.27;;;;;;;3.53;100.00;98499.25;5012767;28;20045;-77
2021/10/15 03:17:55;;;;;;;17.73;8.60;;;;;;;3.59;100.00;98497.47;5012135;28;20026;-78
2021/10/15 03:20:21;;;;;;;14.93;7.82;;;;;;;3.62;100.00;98497.00;5022581;28;20026;-78
2021/10/15 03:22:47;;;;;;;15.40;8.60;;;;;;;3.55;100.00;98499.81;5017143;28;20033;-78
2021/10/15 03:25:13;;;;;;;18.80;8.85;;;;;;;3.61;100.00;98500.75;5005345;28;20029;-77
2021/10/15 03:27:38;;;;;;;13.93;7.93;;;;;;;3.65;100.00;98496.50;4992208;28;20031;-78
2021/10/15 03:30:06;;;;;;;11.18;7.88;;;;;;;3.70;100.00;98494.72;4991286;28;20386;-78
2021/10/15 03:32:32;;;;;;;16.05;9.27;;;;;;;3.68;100.00;98501.44;5005952;28;20031;-77
2021/10/15 03:34:57;;;;;;;13.93;7.82;;;;;;;3.65;100.00;98496.50;4990783;28;20030;-78
2021/10/15 03:37:26;;;;;;;12.65;8.27;;;;;;;3.68;100.00;98487.91;4990876;28;20487;-78
2021/10/15 03:39:52;;;;;;;16.23;7.85;;;;;;;3.60;100.00;98491.78;4991705;28;20116;-78
2021/10/15 03:42:18;;;;;;;14.38;8.70;;;;;;;3.65;100.00;98485.69;4991095;28;20084;-77
2021/10/15 03:44:43;;;;;;;13.25;7.45;;;;;;;3.68;100.00;98485.22;4991576;28;20038;-78
2021/10/15 03:47:08;;;;;;;14.35;9.10;;;;;;;3.63;100.00;98482.41;4991503;28;20026;-77
2021/10/15 03:49:34;;;;;;;14.13;7.82;;;;;;;3.65;100.00;98489.22;4990912;28;20034;-77
2021/10/15 03:51:59;;;;;;;19.02;8.27;;;;;;;3.65;100.00;98477.56;5005828;28;20023;-77
2021/10/15 03:54:25;;;;;;;15.27;8.52;;;;;;;3.62;100.00;98480.75;4990877;28;20030;-77
2021/10/15 03:56:50;;;;;;;15.10;7.82;;;;;;;3.53;100.00;98479.47;5003461;28;20440;-77
2021/10/15 03:59:16;;;;;;;14.30;8.27;;;;;;;3.37;100.00;98483.72;5000184;28;20027;-77
2021/10/15 04:01:41;;;;;;;14.45;8.55;;;;;;;3.46;100.00;98482.31;4993688;28;20065;-74
2021/10/15 04:04:07;;;;;;;14.82;8.63;;;;;;;3.54;100.00;98490.03;4990578;28;20416;-77
2021/10/15 04:06:32;;;;;;;14.20;8.00;;;;;;;3.55;100.00;98485.47;5022546;28;20541;-77
2021/10/15 04:08:58;;;;;;;13.35;7.80;;;;;;;3.64;100.00;98484.88;4991048;28;20466;-78
2021/10/15 04:11:23;;;;;;;15.52;8.85;;;;;;;3.57;100.00;98478.75;4991246;28;20026;-77
2021/10/15 04:13:48;;;;;;;16.20;8.55;;;;;;;3.50;100.00;98483.50;4990882;28;20437;-78
2021/10/15 04:16:14;;;;;;;11.82;7.75;;;;;;;3.44;100.00;98492.53;4991766;28;20459;-77
2021/10/15 04:18:40;;;;;;;14.85;8.75;;;;;;;3.41;100.00;98481.38;5026947;28;20529;-77
2021/10/15 04:21:05;;;;;;;13.55;8.07;;;;;;;3.34;100.00;98478.78;4997682;28;20526;-77
2021/10/15 04:23:31;;;;;;;19.95;7.90;;;;;;;3.22;100.00;98476.09;4996607;28;20031;-77
2021/10/15 04:25:56;;;;;;;12.90;7.45;;;;;;;3.21;100.00;98471.75;4996816;28;20030;-77
2021/10/15 04:28:22;;;;;;;12.82;7.38;;;;;;;3.09;100.00;98467.41;5010102;28;20022;-76
2021/10/15 04:30:47;;;;;;;12.13;7.35;;;;;;;3.09;100.00;98470.94;5010805;28;20040;-76
2021/10/15 04:33:13;;;;;;;14.75;7.70;;;;;;;3.14;100.00;98468.34;5002604;28;20105;-76
2021/10/15 04:35:39;;;;;;;12.88;7.22;;;;;;;3.14;100.00;98471.03;5031600;28;20084;-76
2021/10/15 04:38:04;;;;;;;12.57;7.65;;;;;;;3.21;100.00;98466.34;5007484;28;20038;-75
2021/10/15 04:40:30;;;;;;;15.90;8.00;;;;;;;3.07;100.00;98466.81;5008295;28;20049;-77
2021/10/15 04:42:55;;;;;;;15.23;7.57;;;;;;;3.09;100.00;98457.41;5009191;28;20402;-77
2021/10/15 04:45:20;;;;;;;15.90;7.53;;;;;;;3.07;100.00;98454.09;5011635;28;20029;-77
2021/10/15 04:47:46;;;;;;;14.65;7.38;;;;;;;3.02;100.00;98451.31;5010996;28;20030;-77
2021/10/15 04:50:12;;;;;;;11.63;7.18;;;;;;;3.06;100.00;98444.38;5001412;28;20057;-78
2021/10/15 04:52:38;;;;;;;11.40;7.25;;;;;;;3.04;100.00;98446.47;5031565;28;20020;-76
2021/10/15 04:55:05;;;;;;;14.63;7.60;;;;;;;3.09;100.00;98443.91;5004455;28;20034;-77
2021/10/15 04:57:30;;;;;;;17.48;7.93;;;;;;;3.13;100.00;98444.25;4999480;28;20395;-76
2021/10/15 04:59:58;;;;;;;16.10;9.57;;;;;;;3.24;100.00;98440.72;5000051;28;20030;-78
2021/10/15 05:02:24;;;;;;;14.95;9.10;;;;;;;3.28;100.00;98438.38;4997856;28;20055;-77
2021/10/15 05:04:49;;;;;;;15.80;8.40;;;;;;;3.34;100.00;98432.00;4999741;28;20045;-76
2021/10/15 05:07:15;;;;;;;16.38;8.82;;;;;;;3.26;100.00;98430.47;5001318;28;20033;-76
2021/10/15 05:09:42;;;;;;;14.35;8.23;;;;;;;3.31;100.00;98422.50;5030988;28;20030;-77
2021/10/15 05:12:13;;;;;;;14.20;8.77;;;;;;;3.29;100.00;98429.22;5010943;28;20101;-75
2021/10/15 05:14:39;;;;;;;15.38;8.65;;;;;;;3.33;100.00;98433.88;5006362;28;20025;-76
2021/10/15 05:17:07;;;;;;;19.48;9.82;;;;;;;3.38;100.00;98427.78;5001401;28;20029;-77
2021/10/15 05:19:33;;;;;;;22.15;11.40;;;;;;;3.39;100.00;98426.69;5009746;28;20026;-79
2021/10/15 05:21:59;;;;;;;23.80;9.75;;;;;;;3.42;100.00;98437.03;5026227;28;20065;-81
2021/10/15 05:24:25;;;;;;;13.63;8.38;;;;;;;3.43;100.00;98433.28;5037589;28;20028;-71
2021/10/15 05:26:52;;;;;;;18.83;9.25;;;;;;;3.50;100.00;98425.88;5023466;28;20098;-71
2021/10/15 05:29:17;;;;;;;16.10;9.30;;;;;;;3.63;100.00;98428.31;5050421;28;20095;-78
2021/10/15 05:31:43;;;;;;;16.40;9.57;;;;;;;3.74;100.00;98424.75;4996773;28;20494;-76
2021/10/15 05:34:08;;;;;;;19.80;11.05;;;;;;;3.78;100.00;98434.03;5036077;28;20034;-77
2021/10/15 05:36:34;;;;;;;18.77;8.57;;;;;;;3.87;100.00;98439.88;5005824;28;20084;-77
2021/10/15 05:38:59;;;;;;;18.02;9.48;;;;;;;3.85;100.00;98431.19;5002196;28;20583;-77
2021/10/15 05:41:25;;;;;;;15.20;8.55;;;;;;;3.78;100.00;98434.88;5014213;28;20041;-78
2021/10/15 05:43:50;;;;;;;17.98;9.05;;;;;;;3.85;100.00;98432.03;5014625;28;20022;-77
2021/10/15 05:46:16;;;;;;;19.00;8.90;;;;;;;3.86;100.00;98430.94;5011651;28;20040;-77
2021/10/15 05:48:41;;;;;;;22.20;10.18;;;;;;;3.86;100.00;98433.66;5011305;28;20030;-77
2021/10/15 05:51:07;;;;;;;35.10;11.68;;;;;;;4.12;100.00;98434.97;5012795;28;20077;-77
2021/10/15 05:53:34;;;;;;;16.35;8.60;;;;;;;4.26;100.00;98434.41;5012895;28;20052;-77
2021/10/15 06:01:12;;;;;;;14.68;8.07;;;;;;;4.33;100.00;98429.69;5016104;28;20060;-78
2021/10/15 06:03:39;;;;;;;17.02;8.95;;;;;;;4.28;100.00;98436.91;5015316;28;20046;-77
2021/10/15 06:14:20;;;;;;;21.73;10.73;;;;;;;4.38;100.00;98447.91;5014924;28;20501;-78
2021/10/15 06:16:57;;;;;;;18.17;9.00;;;;;;;4.53;100.00;98444.66;5012523;28;20040;-78
2021/10/15 06:19:25;;;;;;;22.58;9.90;;;;;;;4.51;100.00;98427.84;5013243;28;20057;-76
2021/10/15 06:21:51;;;;;;;25.50;9.57;;;;;;;4.54;100.00;98435.47;5028169;28;20084;-78
2021/10/15 06:24:18;;;;;;;21.45;9.80;;;;;;;4.65;100.00;98421.00;5011433;28;20036;-80
2021/10/15 06:26:44;;;;;;;21.70;10.60;;;;;;;4.75;100.00;98427.44;5051733;28;20029;-80
2021/10/15 06:29:09;;;;;;;23.88;8.68;;;;;;;4.69;100.00;98419.47;5015486;28;20037;-79
2021/10/15 06:31:35;;;;;;;20.02;9.10;;;;;;;4.90;100.00;98417.88;5013990;28;20118;-77
2021/10/15 06:34:00;;;;;;;17.25;8.52;;;;;;;5.00;100.00;98418.88;5030863;28;20034;-79
2021/10/15 06:36:26;;;;;;;19.75;8.27;;;;;;;4.99;100.00;98419.94;5018736;28;20479;-79
2021/10/15 06:38:52;;;;;;;17.42;8.77;;;;;;;5.02;100.00;98424.84;5016939;28;20030;-79
2021/10/15 06:41:18;;;;;;;13.63;8.15;;;;;;;5.28;100.00;98424.16;5015574;28;20103;-78
2021/10/15 06:43:44;;;;;;;16.08;8.45;;;;;;;5.40;100.00;98424.06;5013763;28;20399;-79
2021/10/15 06:46:10;;;;;;;19.42;8.90;;;;;;;5.53;100.00;98431.84;5014675;28;20026;-78
2021/10/15 06:48:35;;;;;;;13.65;7.55;;;;;;;5.68;100.00;98420.34;5014288;28;20033;-77
2021/10/15 06:51:01;;;;;;;19.10;8.80;;;;;;;5.88;100.00;98420.63;5031998;28;20034;-77
2021/10/15 06:53:27;;;;;;;16.65;8.57;;;;;;;5.96;100.00;98425.59;5025528;28;20028;-78
2021/10/15 06:55:52;;;;;;;19.38;9.75;;;;;;;5.97;100.00;98418.28;5035039;28;20069;-77
2021/10/15 06:58:17;;;;;;;15.73;8.30;;;;;;;6.02;100.00;98416.44;5035644;28;20034;-78
2021/10/15 07:00:44;;;;;;;13.25;8.15;;;;;;;6.00;100.00;98417.78;5030466;28;20022;-78
2021/10/15 07:03:17;;;;;;;17.05;8.73;;;;;;;6.25;100.00;98432.47;5029194;28;20025;-78
2021/10/15 07:05:42;;;;;;;14.98;8.65;;;;;;;6.47;99.52;98427.81;5023649;28;20501;-79
2021/10/15 07:08:08;;;;;;;17.55;9.30;;;;;;;6.46;99.34;98422.59;5016307;28;20060;-78
2021/10/15 07:10:33;;;;;;;20.23;9.80;;;;;;;6.46;98.26;98426.16;5021186;28;20026;-79
2021/10/15 07:12:59;;;;;;;17.55;8.30;;;;;;;6.54;99.01;98429.47;5017081;28;20121;-79
2021/10/15 07:15:24;;;;;;;19.52;8.48;;;;;;;6.68;99.24;98427.97;5018738;28;20041;-78
2021/10/15 07:17:51;;;;;;;24.48;9.02;;;;;;;7.02;95.65;98426.63;5021910;28;20064;-79
2021/10/15 07:20:16;;;;;;;21.35;10.05;;;;;;;7.33;94.28;98428.47;5032205;28;20045;-78
2021/10/15 07:22:42;;;;;;;35.83;12.55;;;;;;;7.48;92.70;98423.13;5028750;28;20049;-78
2021/10/15 07:25:08;;;;;;;37.00;13.98;;;;;;;7.79;90.60;98431.44;5019234;28;20030;-79
2021/10/15 07:27:35;;;;;;;35.60;14.95;;;;;;;7.99;89.16;98420.63;5019295;28;20058;-80
2021/10/15 07:30:01;;;;;;;36.05;14.52;;;;;;;8.54;86.14;98430.88;5017499;28;20057;-79
2021/10/15 07:32:26;;;;;;;35.20;14.73;;;;;;;9.04;83.17;98427.38;5020411;28;20033;-80
2021/10/15 07:34:52;;;;;;;31.33;14.45;;;;;;;9.68;79.73;98436.53;5023206;28;20030;-79
2021/10/15 07:37:17;;;;;;;26.27;11.45;;;;;;;10.30;77.70;98435.25;5017824;28;20090;-80
2021/10/15 07:39:43;;;;;;;26.50;9.88;;;;;;;10.29;77.05;98430.03;5010548;28;20031;-78
2021/10/15 07:42:08;;;;;;;18.00;9.25;;;;;;;10.82;73.43;98431.06;5000225;28;20018;-79
2021/10/15 07:44:34;;;;;;;19.95;9.90;;;;;;;10.53;73.88;98431.81;5003945;28;20037;-79
2021/10/15 07:46:59;;;;;;;22.17;9.63;;;;;;;10.48;79.26;98429.09;5009003;28;20023;-78
2021/10/15 07:49:25;;;;;;;23.02;9.85;;;;;;;11.43;75.05;98415.75;5007983;28;20026;-79
2021/10/15 07:51:50;;;;;;;30.98;9.93;;;;;;;11.08;74.18;98427.03;5000926;28;20018;-79
2021/10/15 07:54:16;;;;;;;24.55;10.00;;;;;;;10.97;73.31;98420.81;5003098;28;20030;-79
2021/10/15 07:56:41;;;;;;;23.65;9.80;;;;;;;10.99;72.07;98417.81;5006444;28;20034;-80
2021/10/15 07:59:07;;;;;;;21.50;9.77;;;;;;;12.50;68.39;98416.09;5005806;28;20081;-80
2021/10/15 08:01:32;;;;;;;17.15;8.32;;;;;;;13.80;62.34;98420.53;5002302;28;20011;-81
2021/10/15 08:03:59;;;;;;;19.20;8.93;;;;;;;14.37;58.61;98421.03;5005002;28;20049;-80
2021/10/15 08:06:25;;;;;;;20.23;9.23;;;;;;;14.97;56.71;98416.84;5005297;28;20031;-80
2021/10/15 08:08:51;;;;;;;23.83;9.88;;;;;;;14.97;56.53;98421.59;5006892;28;20405;-80
2021/10/15 08:11:18;;;;;;;20.45;7.93;;;;;;;16.17;53.38;98426.94;5005498;28;20034;-80
2021/10/15 08:13:44;;;;;;;14.82;6.90;;;;;;;17.06;51.26;98413.47;5004606;28;20034;-79
2021/10/15 08:16:09;;;;;;;18.98;7.10;;;;;;;17.35;47.43;98412.78;5018409;28;20068;-80
2021/10/15 08:18:35;;;;;;;15.40;6.75;;;;;;;18.06;46.28;98420.25;5023988;28;20056;-80
2021/10/15 08:21:00;;;;;;;16.65;6.97;;;;;;;19.05;42.83;98421.41;5021698;28;20030;-82
2021/10/15 08:23:28;;;;;;;13.43;7.10;;;;;;;17.35;46.28;98412.78;5021992;28;20034;-80
2021/10/15 08:25:55;;;;;;;15.20;7.55;;;;;;;17.16;47.78;98412.31;5021885;28;20014;-81
2021/10/15 08:28:21;;;;;;;11.57;7.05;;;;;;;17.64;48.46;98421.19;5021158;28;20026;-81
2021/10/15 08:30:47;;;;;;;14.43;7.03;;;;;;;17.95;47.09;98413.44;5015462;28;20026;-80
2021/10/15 08:33:12;;;;;;;10.93;6.53;;;;;;;16.99;48.20;98411.19;5021498;28;20033;-80
2021/10/15 08:35:38;;;;;;;13.82;7.30;;;;;;;17.27;48.30;98403.34;5023937;28;20045;-80
2021/10/15 08:38:03;;;;;;;12.35;7.22;;;;;;;17.82;45.73;98411.72;5024773;28;20494;-81
2021/10/15 08:40:29;;;;;;;14.68;6.45;;;;;;;17.50;45.65;98403.97;5027434;28;20034;-79
2021/10/15 08:42:56;;;;;;;11.02;5.38;;;;;;;18.38;43.60;98395.78;5028068;28;20022;-80
2021/10/15 08:45:28;;;;;;;12.15;5.82;;;;;;;18.65;44.25;98398.06;5022498;28;20109;-83
2021/10/15 08:47:54;;;;;;;9.73;5.38;;;;;;;19.74;40.75;98399.34;4997455;28;20034;-82
2021/10/15 08:50:21;;;;;;;11.52;6.60;;;;;;;20.20;38.47;98400.91;4997266;28;20380;-85
2021/10/15 08:52:46;;;;;;;13.52;7.22;;;;;;;19.15;40.33;98387.72;4997393;28;20035;-80
2021/10/15 08:55:12;;;;;;;15.07;8.77;;;;;;;19.38;40.65;98388.16;4996122;28;20383;-81
2021/10/15 08:57:37;;;;;;;19.55;9.02;;;;;;;19.81;40.14;98393.25;5028140;28;20137;-80
2021/10/15 09:00:29;;;;;;;12.55;7.53;;;;;;;20.10;39.18;98389.44;4996236;28;20463;-81
2021/10/15 09:03:13;;;;;;;12.45;6.10;;;;;;;21.06;36.56;98385.72;4994734;28;20113;-80
2021/10/15 09:05:41;;;;;;;12.20;6.38;;;;;;;21.12;36.36;98383.53;4995237;28;20042;-83
2021/10/15 09:08:07;;;;;;;11.30;5.70;;;;;;;20.76;36.60;98374.13;4997491;28;20022;-82
2021/10/15 09:10:34;;;;;;;15.57;6.00;;;;;;;21.17;36.10;98378.53;4997105;28;20034;-82
2021/10/15 09:13:09;;;;;;;8.75;5.22;;;;;;;20.89;35.83;98376.88;4997111;28;20109;-81
2021/10/15 09:15:35;;;;;;;12.30;4.80;;;;;;;20.85;36.04;98373.97;4995232;28;20057;-82
2021/10/15 09:18:15;;;;;;;10.90;4.82;;;;;;;21.13;35.65;98376.81;4996842;28;20025;-82
2021/10/15 09:20:41;;;;;;;9.02;4.68;;;;;;;21.26;35.31;98375.59;4995792;28;20137;-82
2021/10/15 09:23:07;;;;;;;8.45;3.92;;;;;;;21.34;35.04;98372.63;4997399;28;20479;-82
2021/10/15 09:25:34;;;;;;;8.15;4.88;;;;;;;21.22;35.74;98369.09;5003403;28;20030;-80
2021/10/15 09:28:01;;;;;;;14.90;5.40;;;;;;;21.71;35.96;98369.63;4999990;28;20026;-80
2021/10/15 09:30:28;;;;;;;12.93;5.60;;;;;;;20.74;38.31;98365.31;4994948;28;20038;-81
2021/10/15 09:33:03;;;;;;;10.82;5.30;;;;;;;22.08;35.74;98359.09;4995682;28;20023;-81
2021/10/15 09:35:32;;;;;;;8.95;5.13;;;;;;;21.64;35.49;98349.97;4994702;28;21491;-79
2021/10/15 09:38:01;;;;;;;8.48;5.20;;;;;;;20.07;38.98;98357.63;4995541;28;20041;-81
2021/10/15 09:40:34;;;;;;;7.68;5.03;;;;;;;21.05;37.10;98342.34;4996309;28;20037;-82
2021/10/15 09:43:03;;;;;;;8.10;5.20;;;;;;;20.45;37.59;98342.56;5028245;28;20382;-83
2021/10/15 09:45:41;;;;;;;8.02;5.18;;;;;;;19.21;40.90;98333.66;5029177;28;20132;-83
2021/10/15 09:48:36;;;;;;;9.45;5.05;;;;;;;20.81;38.62;98325.78;5001896;28;20391;-81
2021/10/15 09:51:28;;;;;;;9.35;6.60;;;;;;;20.56;37.94;98318.66;5016788;28;20100;-83
2021/10/15 09:54:11;;;;;;;12.75;6.15;;;;;;;20.99;37.42;98315.97;5014918;28;20069;-81
2021/10/15 09:56:53;;;;;;;9.23;5.38;;;;;;;21.51;36.88;98315.84;5015593;28;20080;-81
2021/10/15 09:59:18;;;;;;;10.07;6.13;;;;;;;20.80;38.33;98310.25;5001803;28;20038;-81
2021/10/15 10:01:44;;;;;;;7.85;5.93;;;;;;;21.21;37.29;98307.06;4993202;28;20037;-82
2021/10/15 10:04:11;;;;;;;8.93;5.47;;;;;;;21.08;37.32;98302.69;4995954;28;20050;-80
2021/10/15 10:06:37;;;;;;;9.63;5.38;;;;;;;21.02;37.97;98304.13;4995541;28;20081;-79
2021/10/15 10:09:04;;;;;;;6.95;4.72;;;;;;;20.88;37.18;98292.59;4996413;28;20061;-83
2021/10/15 10:11:30;;;;;;;6.30;4.80;;;;;;;20.58;37.98;98294.91;4994727;28;20030;-84
2021/10/15 10:13:55;;;;;;;9.38;5.32;;;;;;;19.74;39.88;98293.84;4995242;28;20026;-80
2021/10/15 10:16:23;;;;;;;7.18;4.63;;;;;;;20.68;38.56;98282.47;4996027;28;20080;-83
2021/10/15 10:18:53;;;;;;;9.18;4.85;;;;;;;21.02;38.32;98283.88;4995972;28;20491;-83
2021/10/15 10:21:24;;;;;;;8.73;4.40;;;;;;;21.11;37.68;98279.75;5027930;28;20030;-83
2021/10/15 10:24:00;;;;;;;7.45;4.75;;;;;;;19.52;40.56;98279.63;4996654;28;20030;-81
2021/10/15 10:26:26;;;;;;;8.95;4.93;;;;;;;20.70;38.00;98280.19;4996537;28;20042;-82
2021/10/15 10:29:04;;;;;;;6.75;4.97;;;;;;;19.33;40.87;98265.47;5039297;28;20030;-80
2021/10/15 10:31:30;;;;;;;8.88;4.22;;;;;;;20.17;39.65;98261.91;5016801;28;20034;-80
2021/10/15 10:33:58;;;;;;;17.17;4.55;;;;;;;19.41;40.77;98261.81;4999921;28;20030;-81
2021/10/15 10:36:27;;;;;;;6.75;4.55;;;;;;;18.37;42.47;98255.66;5006012;28;20486;-79
2021/10/15 10:38:53;;;;;;;6.43;4.00;;;;;;;19.76;40.40;98247.16;5014593;28;20033;-83
2021/10/15 10:41:24;;;;;;;7.00;3.70;;;;;;;19.23;40.82;98239.00;5014332;28;20026;-81
2021/10/15 10:43:49;;;;;;;9.48;4.53;;;;;;;19.81;40.19;98223.88;5015740;28;20037;-79
2021/10/15 10:46:18;;;;;;;7.30;4.70;;;;;;;18.84;42.07;98232.09;5014064;28;20034;-82
2021/10/15 10:48:49;;;;;;;9.50;4.63;;;;;;;19.35;41.33;98224.31;5013854;28;20514;-81
2021/10/15 10:51:25;;;;;;;9.77;4.47;;;;;;;19.59;41.00;98216.03;5014230;28;20372;-81
2021/10/15 10:56:49;;;;;;;7.97;4.75;;;;;;;19.47;41.76;98202.97;4993406;28;20053;-79
2021/10/15 10:59:18;;;;;;;6.97;4.55;;;;;;;20.43;40.35;98203.13;4995185;28;20040;-84
2021/10/15 11:01:51;;;;;;;8.57;4.32;;;;;;;18.44;43.64;98189.44;5011279;28;20092;-84
2021/10/15 11:04:27;;;;;;;7.55;4.32;;;;;;;18.01;43.65;98187.84;4994246;28;20389;-82
2021/10/15 11:06:59;;;;;;;7.15;4.25;;;;;;;18.96;41.76;98184.16;4994088;28;20041;-81
2021/10/15 11:09:48;;;;;;;7.25;4.70;;;;;;;18.26;43.22;98176.91;5012202;28;20125;-84
2021/10/15 11:12:26;;;;;;;14.38;5.05;;;;;;;16.49;47.64;98164.19;5006232;28;20034;-81
2021/10/15 11:15:00;;;;;;;6.43;4.28;;;;;;;14.74;52.28;98148.09;5009622;28;20041;-78
2021/10/15 11:17:30;;;;;;;8.88;5.20;;;;;;;14.55;53.71;98142.00;5024541;28;20109;-79
2021/10/15 11:20:14;;;;;;;11.05;5.35;;;;;;;14.66;54.30;98134.31;5023121;28;20505;-79
2021/10/15 11:22:42;;;;;;;9.05;5.10;;;;;;;14.40;54.92;98137.75;5031126;28;20053;-78
2021/10/15 11:25:09;;;;;;;8.90;3.95;;;;;;;14.32;53.37;98134.88;5033100;28;20014;-78
2021/10/15 11:27:35;;;;;;;11.57;4.63;;;;;;;14.63;53.47;98123.94;5021536;28;20080;-79
2021/10/15 11:30:03;;;;;;;6.63;3.33;;;;;;;14.56;52.60;98116.13;5024071;28;20085;-80
2021/10/15 11:32:29;;;;;;;5.80;2.80;;;;;;;14.33;53.60;98114.53;5022129;28;20040;-79
2021/10/15 11:35:09;;;;;;;6.07;3.33;;;;;;;14.03;54.20;98112.56;5024238;28;20033;-80
2021/10/15 11:38:09;;;;;;;4.82;2.90;;;;;;;14.09;53.84;98103.03;5018717;28;20486;-78
2021/10/15 11:40:34;;;;;;;5.38;3.30;;;;;;;14.44;53.80;98099.38;5019039;28;20406;-78
2021/10/15 11:43:22;;;;;;;7.45;3.67;;;;;;;14.37;54.05;98094.34;5024002;28;20030;-77